DAAAX LEPA-EDMO
Flight info
| Callsign | DAAAX |
|---|---|
| Flight time | 1h 55m |
| Altitude | 40000 |
| Route | MEROS N853 LUMAS/N0463F300 UM976 SOSUR DCT NOSTA DCT UVNIB DCT IVKAL T102 NINUR NINUR1B |
| Aircraft | CL60/M-SDFGHIRWXY/H |
Departure
| Time | 2026-04-25 13:40 |
|---|---|
| Airport | Palma de Mallorca Airport (LEPA) |
Arrival
| Time | 2026-04-25 15:35 |
|---|---|
| Airport | Oberpfaffenhofen Airport (EDMO) |
| Time | Latitude | Longitude | Altitude | Speed | Heading |
|---|---|---|---|---|---|
| 2026-04-25 13:16 | 39.54272 | 2.72693 | 40 ft | 0 kts | 59° |
| 2026-04-25 13:32 | 39.54273 | 2.72694 | 40 ft | 0 kts | 59° |
| 2026-04-25 13:33 | 39.54276 | 2.72708 | 40 ft | 4 kts | 99° |
| 2026-04-25 13:33 | 39.54267 | 2.72769 | 40 ft | 6 kts | 67° |
| 2026-04-25 13:33 | 39.54275 | 2.72855 | 40 ft | 12 kts | 71° |
| 2026-04-25 13:33 | 39.54303 | 2.72925 | 40 ft | 14 kts | 59° |
| 2026-04-25 13:34 | 39.54386 | 2.73099 | 40 ft | 19 kts | 59° |
| 2026-04-25 13:34 | 39.54464 | 2.73262 | 40 ft | 22 kts | 58° |
| 2026-04-25 13:34 | 39.54551 | 2.73445 | 41 ft | 19 kts | 56° |
| 2026-04-25 13:34 | 39.54595 | 2.73536 | 41 ft | 13 kts | 54° |
| 2026-04-25 13:35 | 39.54650 | 2.73651 | 41 ft | 16 kts | 68° |
| 2026-04-25 13:35 | 39.54712 | 2.73798 | 41 ft | 20 kts | 58° |
| 2026-04-25 13:35 | 39.54778 | 2.73923 | 41 ft | 17 kts | 57° |
| 2026-04-25 13:35 | 39.54843 | 2.74000 | 41 ft | 13 kts | 346° |
| 2026-04-25 13:36 | 39.54911 | 2.73956 | 41 ft | 9 kts | 8° |
| 2026-04-25 13:36 | 39.54968 | 2.74011 | 41 ft | 10 kts | 348° |
| 2026-04-25 13:36 | 39.55038 | 2.73955 | 42 ft | 13 kts | 329° |
| 2026-04-25 13:36 | 39.55124 | 2.73886 | 42 ft | 16 kts | 329° |
| 2026-04-25 13:37 | 39.55228 | 2.73803 | 42 ft | 18 kts | 330° |
| 2026-04-25 13:37 | 39.55357 | 2.73701 | 42 ft | 24 kts | 328° |
| 2026-04-25 13:37 | 39.55517 | 2.73576 | 42 ft | 26 kts | 330° |
| 2026-04-25 13:37 | 39.55617 | 2.73498 | 42 ft | 10 kts | 328° |
| 2026-04-25 13:38 | 39.55677 | 2.73555 | 42 ft | 14 kts | 56° |
| 2026-04-25 13:38 | 39.55738 | 2.73677 | 42 ft | 18 kts | 60° |
| 2026-04-25 13:38 | 39.55806 | 2.73826 | 43 ft | 15 kts | 58° |
| 2026-04-25 13:38 | 39.55864 | 2.73911 | 43 ft | 12 kts | 3° |
| 2026-04-25 13:39 | 39.55947 | 2.73851 | 43 ft | 12 kts | 328° |
| 2026-04-25 13:39 | 39.55999 | 2.73807 | 43 ft | 5 kts | 318° |
| 2026-04-25 13:39 | 39.55993 | 2.73770 | 43 ft | 8 kts | 235° |
| 2026-04-25 13:39 | 39.55819 | 2.73406 | 43 ft | 96 kts | 238° |
| 2026-04-25 13:40 | 39.55333 | 2.72376 | 329 ft | 156 kts | 237° |
| 2026-04-25 13:40 | 39.54716 | 2.71109 | 1112 ft | 181 kts | 237° |
| 2026-04-25 13:40 | 39.54021 | 2.69692 | 2029 ft | 199 kts | 237° |
| 2026-04-25 13:40 | 39.53286 | 2.68191 | 3193 ft | 204 kts | 236° |
| 2026-04-25 13:41 | 39.52510 | 2.66617 | 4246 ft | 221 kts | 237° |
| 2026-04-25 13:41 | 39.51654 | 2.64889 | 5154 ft | 243 kts | 237° |
| 2026-04-25 13:41 | 39.50716 | 2.63031 | 5196 ft | 260 kts | 237° |
| 2026-04-25 13:41 | 39.49692 | 2.61031 | 6396 ft | 270 kts | 234° |
| 2026-04-25 13:42 | 39.48325 | 2.59401 | 7542 ft | 281 kts | 211° |
| 2026-04-25 13:42 | 39.46627 | 2.58116 | 8670 ft | 293 kts | 209° |
| 2026-04-25 13:42 | 39.44851 | 2.56801 | 9885 ft | 301 kts | 209° |
| 2026-04-25 13:42 | 39.42981 | 2.55613 | 11101 ft | 306 kts | 194° |
| 2026-04-25 13:43 | 39.40885 | 2.55532 | 12355 ft | 305 kts | 163° |
| 2026-04-25 13:43 | 39.39081 | 2.56786 | 13499 ft | 302 kts | 133° |
| 2026-04-25 13:43 | 39.37694 | 2.58788 | 14581 ft | 306 kts | 128° |
| 2026-04-25 13:43 | 39.36310 | 2.60881 | 15619 ft | 312 kts | 128° |
| 2026-04-25 13:44 | 39.34900 | 2.62978 | 16622 ft | 316 kts | 129° |
| 2026-04-25 13:44 | 39.33433 | 2.65117 | 17584 ft | 322 kts | 130° |
| 2026-04-25 13:44 | 39.31932 | 2.67263 | 18531 ft | 327 kts | 130° |
| 2026-04-25 13:44 | 39.30386 | 2.69429 | 19408 ft | 333 kts | 131° |
| 2026-04-25 13:45 | 39.28814 | 2.71616 | 20280 ft | 337 kts | 129° |
| 2026-04-25 13:45 | 39.27593 | 2.74181 | 21132 ft | 338 kts | 111° |
| 2026-04-25 13:45 | 39.27024 | 2.77105 | 21927 ft | 340 kts | 94° |
| 2026-04-25 13:45 | 39.27165 | 2.80119 | 22680 ft | 343 kts | 76° |
| 2026-04-25 13:46 | 39.28033 | 2.82970 | 23446 ft | 347 kts | 58° |
| 2026-04-25 13:46 | 39.29571 | 2.85338 | 24197 ft | 351 kts | 40° |
| 2026-04-25 13:46 | 39.31639 | 2.87065 | 24893 ft | 358 kts | 29° |
| 2026-04-25 13:46 | 39.33837 | 2.88623 | 25611 ft | 363 kts | 29° |
| 2026-04-25 13:47 | 39.36024 | 2.90183 | 26329 ft | 367 kts | 29° |
| 2026-04-25 13:47 | 39.38271 | 2.91789 | 27026 ft | 370 kts | 29° |
| 2026-04-25 13:47 | 39.40527 | 2.93402 | 27670 ft | 375 kts | 29° |
| 2026-04-25 13:47 | 39.42828 | 2.95050 | 28328 ft | 378 kts | 29° |
| 2026-04-25 13:48 | 39.45106 | 2.96681 | 28907 ft | 382 kts | 30° |
| 2026-04-25 13:48 | 39.47456 | 2.98366 | 29454 ft | 387 kts | 30° |
| 2026-04-25 13:48 | 39.49817 | 3.00059 | 29990 ft | 392 kts | 30° |
| 2026-04-25 13:48 | 39.52207 | 3.01775 | 30533 ft | 395 kts | 30° |
| 2026-04-25 13:49 | 39.54597 | 3.03493 | 31130 ft | 397 kts | 30° |
| 2026-04-25 13:49 | 39.57013 | 3.05230 | 31720 ft | 398 kts | 30° |
| 2026-04-25 13:49 | 39.59446 | 3.06981 | 32231 ft | 400 kts | 29° |
| 2026-04-25 13:49 | 39.61875 | 3.08730 | 32647 ft | 404 kts | 30° |
| 2026-04-25 13:50 | 39.64326 | 3.10497 | 33052 ft | 407 kts | 30° |
| 2026-04-25 13:50 | 39.66806 | 3.12286 | 33444 ft | 410 kts | 30° |
| 2026-04-25 13:50 | 39.69326 | 3.14106 | 33846 ft | 413 kts | 30° |
| 2026-04-25 13:50 | 39.71832 | 3.15917 | 34287 ft | 413 kts | 30° |
| 2026-04-25 13:51 | 39.74303 | 3.17703 | 34822 ft | 412 kts | 29° |
| 2026-04-25 13:51 | 39.76804 | 3.19514 | 35340 ft | 410 kts | 29° |
| 2026-04-25 13:51 | 39.79296 | 3.21319 | 35802 ft | 409 kts | 29° |
| 2026-04-25 13:51 | 39.81779 | 3.23119 | 36235 ft | 409 kts | 29° |
| 2026-04-25 13:52 | 39.84231 | 3.24898 | 36623 ft | 409 kts | 29° |
| 2026-04-25 13:52 | 39.86723 | 3.26708 | 36978 ft | 409 kts | 29° |
| 2026-04-25 13:52 | 39.89214 | 3.28519 | 37305 ft | 410 kts | 29° |
| 2026-04-25 13:52 | 39.91677 | 3.30310 | 37625 ft | 410 kts | 29° |
| 2026-04-25 13:53 | 39.94168 | 3.32124 | 37925 ft | 411 kts | 29° |
| 2026-04-25 13:53 | 39.96668 | 3.33945 | 38225 ft | 411 kts | 29° |
| 2026-04-25 13:53 | 39.99129 | 3.35739 | 38520 ft | 411 kts | 29° |
| 2026-04-25 13:53 | 40.01622 | 3.37559 | 38802 ft | 412 kts | 29° |
| 2026-04-25 13:54 | 40.04139 | 3.39398 | 39095 ft | 411 kts | 29° |
| 2026-04-25 13:54 | 40.06625 | 3.41216 | 39358 ft | 411 kts | 29° |
| 2026-04-25 13:54 | 40.09132 | 3.43050 | 39599 ft | 412 kts | 29° |
| 2026-04-25 13:54 | 40.11638 | 3.44885 | 39825 ft | 412 kts | 29° |
| 2026-04-25 13:55 | 40.14137 | 3.46717 | 40025 ft | 413 kts | 29° |
| 2026-04-25 13:55 | 40.19197 | 3.50431 | 40097 ft | 421 kts | 29° |
| 2026-04-25 13:56 | 40.24365 | 3.54231 | 40091 ft | 431 kts | 29° |
| 2026-04-25 13:56 | 40.29637 | 3.58113 | 40090 ft | 439 kts | 29° |
| 2026-04-25 13:57 | 40.34998 | 3.62069 | 40090 ft | 447 kts | 29° |
| 2026-04-25 13:57 | 40.40423 | 3.66080 | 40090 ft | 453 kts | 30° |
| 2026-04-25 13:58 | 40.45953 | 3.70176 | 40090 ft | 458 kts | 30° |
| 2026-04-25 13:58 | 40.51503 | 3.74294 | 40091 ft | 463 kts | 29° |
| 2026-04-25 13:59 | 40.57155 | 3.78497 | 40093 ft | 468 kts | 29° |
| 2026-04-25 13:59 | 40.62818 | 3.82716 | 40092 ft | 473 kts | 29° |
| 2026-04-25 14:00 | 40.68552 | 3.86996 | 40091 ft | 475 kts | 29° |
| 2026-04-25 14:00 | 40.74285 | 3.91284 | 40092 ft | 474 kts | 30° |
| 2026-04-25 14:01 | 40.79972 | 3.95546 | 40091 ft | 473 kts | 30° |
| 2026-04-25 14:01 | 40.85694 | 3.99842 | 40092 ft | 472 kts | 30° |
| 2026-04-25 14:02 | 40.91392 | 4.04130 | 40092 ft | 472 kts | 29° |
| 2026-04-25 14:02 | 40.97078 | 4.08416 | 40092 ft | 472 kts | 29° |
| 2026-04-25 14:03 | 41.02758 | 4.12707 | 40095 ft | 472 kts | 29° |
| 2026-04-25 14:03 | 41.08494 | 4.17048 | 40091 ft | 472 kts | 29° |
| 2026-04-25 14:04 | 41.14171 | 4.21354 | 40092 ft | 471 kts | 29° |
| 2026-04-25 14:04 | 41.19855 | 4.25674 | 40094 ft | 471 kts | 29° |
| 2026-04-25 14:05 | 41.25531 | 4.29997 | 40089 ft | 472 kts | 29° |
| 2026-04-25 14:05 | 41.31197 | 4.34320 | 40091 ft | 472 kts | 29° |
| 2026-04-25 14:06 | 41.36893 | 4.38675 | 40094 ft | 472 kts | 29° |
| 2026-04-25 14:06 | 41.42569 | 4.43024 | 40092 ft | 471 kts | 29° |
| 2026-04-25 14:07 | 41.48254 | 4.47388 | 40089 ft | 471 kts | 29° |
| 2026-04-25 14:07 | 41.53934 | 4.51758 | 40093 ft | 471 kts | 29° |
| 2026-04-25 14:08 | 41.59602 | 4.56126 | 40088 ft | 471 kts | 29° |
| 2026-04-25 14:08 | 41.65273 | 4.60506 | 40090 ft | 471 kts | 29° |
| 2026-04-25 14:09 | 41.70916 | 4.64868 | 40092 ft | 470 kts | 28° |
| 2026-04-25 14:09 | 41.76993 | 4.68140 | 40089 ft | 469 kts | 16° |
| 2026-04-25 14:10 | 41.82218 | 4.70206 | 40093 ft | 470 kts | 16° |
| 2026-04-25 14:10 | 41.89513 | 4.73104 | 40092 ft | 470 kts | 16° |
| 2026-04-25 14:11 | 41.95771 | 4.75594 | 40091 ft | 470 kts | 16° |
| 2026-04-25 14:11 | 42.02030 | 4.78088 | 40097 ft | 470 kts | 16° |
| 2026-04-25 14:12 | 42.08270 | 4.80578 | 40091 ft | 470 kts | 16° |
| 2026-04-25 14:12 | 42.14545 | 4.83087 | 40084 ft | 470 kts | 16° |
| 2026-04-25 14:13 | 42.20846 | 4.85611 | 40093 ft | 470 kts | 16° |
| 2026-04-25 14:13 | 42.27089 | 4.88116 | 40072 ft | 470 kts | 16° |
| 2026-04-25 14:14 | 42.33353 | 4.90634 | 40073 ft | 470 kts | 16° |
| 2026-04-25 14:14 | 42.39614 | 4.93156 | 40069 ft | 470 kts | 16° |
| 2026-04-25 14:15 | 42.45880 | 4.95688 | 40080 ft | 469 kts | 16° |
| 2026-04-25 14:15 | 42.51853 | 4.99119 | 40070 ft | 469 kts | 29° |
| 2026-04-25 14:16 | 42.57119 | 5.04313 | 40068 ft | 470 kts | 42° |
| 2026-04-25 14:16 | 42.61373 | 5.10995 | 40070 ft | 471 kts | 55° |
| 2026-04-25 14:17 | 42.64930 | 5.18455 | 40060 ft | 473 kts | 57° |
| 2026-04-25 14:17 | 42.68470 | 5.25938 | 40063 ft | 474 kts | 57° |
| 2026-04-25 14:18 | 42.72031 | 5.33475 | 40059 ft | 474 kts | 57° |
| 2026-04-25 14:18 | 42.75579 | 5.41001 | 40069 ft | 473 kts | 57° |
| 2026-04-25 14:19 | 42.79105 | 5.48494 | 40057 ft | 473 kts | 57° |
| 2026-04-25 14:19 | 42.82633 | 5.56009 | 40052 ft | 473 kts | 57° |
| 2026-04-25 14:20 | 42.86178 | 5.63576 | 40050 ft | 473 kts | 57° |
| 2026-04-25 14:20 | 42.89693 | 5.71098 | 40046 ft | 473 kts | 57° |
| 2026-04-25 14:21 | 42.93221 | 5.78664 | 40055 ft | 474 kts | 57° |
| 2026-04-25 14:21 | 42.96741 | 5.86234 | 40056 ft | 474 kts | 57° |
| 2026-04-25 14:22 | 43.00267 | 5.93835 | 40053 ft | 474 kts | 57° |
| 2026-04-25 14:22 | 43.03782 | 6.01430 | 40040 ft | 474 kts | 57° |
| 2026-04-25 14:23 | 43.07286 | 6.09021 | 40047 ft | 473 kts | 57° |
| 2026-04-25 14:23 | 43.10787 | 6.16625 | 40069 ft | 473 kts | 57° |
| 2026-04-25 14:24 | 43.14326 | 6.24332 | 40055 ft | 474 kts | 57° |
| 2026-04-25 14:24 | 43.17827 | 6.31976 | 40066 ft | 475 kts | 57° |
| 2026-04-25 14:25 | 43.21321 | 6.39625 | 40059 ft | 476 kts | 57° |
| 2026-04-25 14:25 | 43.24819 | 6.47302 | 40037 ft | 476 kts | 57° |
| 2026-04-25 14:26 | 43.28314 | 6.54992 | 40050 ft | 476 kts | 57° |
| 2026-04-25 14:26 | 43.31819 | 6.62724 | 40037 ft | 476 kts | 57° |
| 2026-04-25 14:27 | 43.35302 | 6.70428 | 40043 ft | 476 kts | 58° |
| 2026-04-25 14:27 | 43.38776 | 6.78134 | 40051 ft | 476 kts | 58° |
| 2026-04-25 14:28 | 43.42243 | 6.85842 | 40036 ft | 477 kts | 58° |
| 2026-04-25 14:28 | 43.45735 | 6.93629 | 40055 ft | 477 kts | 58° |
| 2026-04-25 14:29 | 43.49207 | 7.01389 | 40051 ft | 477 kts | 57° |
| 2026-04-25 14:29 | 43.52658 | 7.09125 | 40049 ft | 477 kts | 58° |
| 2026-04-25 14:30 | 43.56130 | 7.16927 | 40035 ft | 477 kts | 57° |
| 2026-04-25 14:30 | 43.61297 | 7.28578 | 40045 ft | 478 kts | 57° |
| 2026-04-25 14:31 | 43.64768 | 7.36431 | 40046 ft | 478 kts | 57° |
| 2026-04-25 14:31 | 43.68204 | 7.44227 | 40038 ft | 477 kts | 57° |
| 2026-04-25 14:32 | 43.71630 | 7.52020 | 40027 ft | 477 kts | 57° |
| 2026-04-25 14:32 | 43.75047 | 7.59813 | 40042 ft | 477 kts | 57° |
| 2026-04-25 14:33 | 43.78495 | 7.67700 | 40040 ft | 478 kts | 58° |
| 2026-04-25 14:33 | 43.82182 | 7.75322 | 40056 ft | 476 kts | 49° |
| 2026-04-25 14:34 | 43.86906 | 7.81642 | 40063 ft | 476 kts | 40° |
| 2026-04-25 14:34 | 43.91857 | 7.87741 | 40069 ft | 476 kts | 40° |
| 2026-04-25 14:35 | 43.96796 | 7.93842 | 40062 ft | 477 kts | 40° |
| 2026-04-25 14:35 | 44.01757 | 7.99983 | 40079 ft | 476 kts | 40° |
| 2026-04-25 14:36 | 44.06696 | 8.06109 | 40070 ft | 477 kts | 40° |
| 2026-04-25 14:36 | 44.11638 | 8.12252 | 40070 ft | 477 kts | 40° |
| 2026-04-25 14:37 | 44.16582 | 8.18413 | 40072 ft | 477 kts | 40° |
| 2026-04-25 14:37 | 44.21555 | 8.24622 | 40063 ft | 477 kts | 40° |
| 2026-04-25 14:38 | 44.26452 | 8.30753 | 40053 ft | 477 kts | 40° |
| 2026-04-25 14:38 | 44.31393 | 8.36951 | 40046 ft | 477 kts | 40° |
| 2026-04-25 14:39 | 44.36302 | 8.43123 | 40040 ft | 477 kts | 40° |
| 2026-04-25 14:39 | 44.41229 | 8.49333 | 40040 ft | 478 kts | 40° |
| 2026-04-25 14:40 | 44.46186 | 8.55596 | 40041 ft | 478 kts | 40° |
| 2026-04-25 14:40 | 44.51114 | 8.61836 | 40047 ft | 478 kts | 40° |
| 2026-04-25 14:41 | 44.56018 | 8.68062 | 40048 ft | 478 kts | 40° |
| 2026-04-25 14:41 | 44.60937 | 8.74320 | 40050 ft | 478 kts | 40° |
| 2026-04-25 14:42 | 44.65018 | 8.79524 | 40038 ft | 479 kts | 40° |
| 2026-04-25 14:42 | 44.70755 | 8.86857 | 40042 ft | 479 kts | 40° |
| 2026-04-25 14:43 | 44.75690 | 8.93182 | 40035 ft | 479 kts | 40° |
| 2026-04-25 14:43 | 44.80605 | 8.99497 | 40034 ft | 479 kts | 40° |
| 2026-04-25 14:44 | 44.85487 | 9.05783 | 40025 ft | 478 kts | 40° |
| 2026-04-25 14:44 | 44.90405 | 9.12131 | 40024 ft | 479 kts | 40° |
| 2026-04-25 14:45 | 44.95292 | 9.18455 | 40015 ft | 479 kts | 40° |
| 2026-04-25 14:45 | 45.00213 | 9.24839 | 40013 ft | 480 kts | 40° |
| 2026-04-25 14:46 | 45.05130 | 9.31232 | 40006 ft | 480 kts | 40° |
| 2026-04-25 14:46 | 45.10030 | 9.37620 | 40003 ft | 480 kts | 40° |
| 2026-04-25 14:47 | 45.14130 | 9.42975 | 40001 ft | 480 kts | 40° |
| 2026-04-25 14:47 | 45.19843 | 9.50458 | 39998 ft | 481 kts | 40° |
| 2026-04-25 14:48 | 45.24977 | 9.56524 | 39996 ft | 479 kts | 32° |
| 2026-04-25 14:48 | 45.30738 | 9.61119 | 40000 ft | 475 kts | 21° |
| 2026-04-25 14:49 | 45.36753 | 9.65036 | 39997 ft | 474 kts | 22° |
| 2026-04-25 14:49 | 45.42753 | 9.68962 | 40003 ft | 474 kts | 22° |
| 2026-04-25 14:50 | 45.48698 | 9.72861 | 40009 ft | 474 kts | 22° |
| 2026-04-25 14:50 | 45.54700 | 9.76806 | 40014 ft | 474 kts | 22° |
| 2026-04-25 14:51 | 45.60691 | 9.80752 | 40021 ft | 474 kts | 22° |
| 2026-04-25 14:51 | 45.66639 | 9.84680 | 40031 ft | 475 kts | 21° |
| 2026-04-25 14:52 | 45.72664 | 9.88667 | 40051 ft | 475 kts | 21° |
| 2026-04-25 14:52 | 45.77630 | 9.91961 | 40074 ft | 475 kts | 21° |
| 2026-04-25 14:53 | 45.84614 | 9.96604 | 40102 ft | 475 kts | 21° |
| 2026-04-25 14:53 | 45.90598 | 10.00593 | 40121 ft | 475 kts | 21° |
| 2026-04-25 14:54 | 45.96562 | 10.04578 | 40135 ft | 475 kts | 21° |
| 2026-04-25 14:54 | 46.02535 | 10.08577 | 40129 ft | 475 kts | 21° |
| 2026-04-25 14:55 | 46.08527 | 10.12600 | 40113 ft | 475 kts | 21° |
| 2026-04-25 14:55 | 46.14497 | 10.16618 | 40134 ft | 474 kts | 21° |
| 2026-04-25 14:56 | 46.20488 | 10.20659 | 40115 ft | 475 kts | 21° |
| 2026-04-25 14:56 | 46.26452 | 10.24692 | 40101 ft | 475 kts | 21° |
| 2026-04-25 14:57 | 46.32412 | 10.28732 | 40137 ft | 475 kts | 21° |
| 2026-04-25 14:57 | 46.38405 | 10.32804 | 40147 ft | 475 kts | 21° |
| 2026-04-25 14:58 | 46.44353 | 10.36855 | 40158 ft | 474 kts | 21° |
| 2026-04-25 14:58 | 46.50306 | 10.40920 | 40147 ft | 474 kts | 21° |
| 2026-04-25 14:59 | 46.56282 | 10.45010 | 40173 ft | 475 kts | 21° |
| 2026-04-25 14:59 | 46.62221 | 10.49085 | 40156 ft | 475 kts | 21° |
| 2026-04-25 15:00 | 46.68191 | 10.53192 | 40189 ft | 474 kts | 21° |
| 2026-04-25 15:00 | 46.74150 | 10.57300 | 40196 ft | 474 kts | 21° |
| 2026-04-25 15:01 | 46.80136 | 10.61438 | 40190 ft | 476 kts | 21° |
| 2026-04-25 15:01 | 46.86064 | 10.65545 | 40218 ft | 474 kts | 22° |
| 2026-04-25 15:02 | 46.92064 | 10.69713 | 40206 ft | 475 kts | 22° |
| 2026-04-25 15:02 | 46.98000 | 10.73847 | 40219 ft | 475 kts | 22° |
| 2026-04-25 15:03 | 47.03952 | 10.78002 | 40241 ft | 475 kts | 22° |
| 2026-04-25 15:03 | 47.09924 | 10.82182 | 40216 ft | 475 kts | 22° |
| 2026-04-25 15:04 | 47.15861 | 10.86347 | 40194 ft | 475 kts | 22° |
| 2026-04-25 15:04 | 47.21829 | 10.90545 | 40213 ft | 474 kts | 22° |
| 2026-04-25 15:05 | 47.27733 | 10.94709 | 40209 ft | 469 kts | 22° |
| 2026-04-25 15:06 | 47.36366 | 11.00822 | 40098 ft | 438 kts | 22° |
| 2026-04-25 15:06 | 47.39081 | 11.02753 | 39955 ft | 420 kts | 22° |
| 2026-04-25 15:06 | 47.41642 | 11.04573 | 39548 ft | 411 kts | 21° |
| 2026-04-25 15:06 | 47.44197 | 11.06388 | 38892 ft | 407 kts | 21° |
| 2026-04-25 15:07 | 47.46761 | 11.08209 | 38068 ft | 407 kts | 21° |
| 2026-04-25 15:07 | 47.49294 | 11.10009 | 37141 ft | 409 kts | 21° |
| 2026-04-25 15:07 | 47.51875 | 11.11846 | 36252 ft | 409 kts | 21° |
| 2026-04-25 15:07 | 47.54388 | 11.13640 | 35594 ft | 404 kts | 21° |
| 2026-04-25 15:08 | 47.56898 | 11.15433 | 34948 ft | 399 kts | 21° |
| 2026-04-25 15:08 | 47.59391 | 11.17217 | 34325 ft | 394 kts | 21° |
| 2026-04-25 15:08 | 47.61864 | 11.18988 | 33782 ft | 388 kts | 21° |
| 2026-04-25 15:08 | 47.64245 | 11.20694 | 33210 ft | 383 kts | 21° |
| 2026-04-25 15:09 | 47.66654 | 11.22423 | 32598 ft | 379 kts | 21° |
| 2026-04-25 15:09 | 47.68999 | 11.24106 | 31980 ft | 376 kts | 21° |
| 2026-04-25 15:09 | 47.73644 | 11.27447 | 30901 ft | 366 kts | 22° |
| 2026-04-25 15:10 | 47.75921 | 11.29087 | 30354 ft | 361 kts | 22° |
| 2026-04-25 15:10 | 47.78180 | 11.30714 | 29788 ft | 357 kts | 22° |
| 2026-04-25 15:10 | 47.82567 | 11.33880 | 28697 ft | 350 kts | 22° |
| 2026-04-25 15:11 | 47.84752 | 11.35460 | 28128 ft | 348 kts | 22° |
| 2026-04-25 15:11 | 47.86908 | 11.37020 | 27613 ft | 344 kts | 22° |
| 2026-04-25 15:11 | 47.89054 | 11.38574 | 27109 ft | 340 kts | 22° |
| 2026-04-25 15:12 | 47.93265 | 11.41628 | 26048 ft | 334 kts | 22° |
| 2026-04-25 15:12 | 47.95352 | 11.43143 | 25529 ft | 331 kts | 22° |
| 2026-04-25 15:12 | 47.97397 | 11.44629 | 25026 ft | 329 kts | 22° |
| 2026-04-25 15:12 | 47.98757 | 11.45618 | 24696 ft | 327 kts | 22° |
| 2026-04-25 15:13 | 48.01465 | 11.47590 | 24045 ft | 322 kts | 22° |
| 2026-04-25 15:13 | 48.05450 | 11.50523 | 22945 ft | 322 kts | 26° |
| 2026-04-25 15:13 | 48.07319 | 11.52435 | 22210 ft | 328 kts | 33° |
| 2026-04-25 15:14 | 48.09108 | 11.54486 | 21574 ft | 327 kts | 34° |
| 2026-04-25 15:14 | 48.10892 | 11.56546 | 20990 ft | 324 kts | 34° |
| 2026-04-25 15:14 | 48.12667 | 11.58599 | 20440 ft | 320 kts | 34° |
| 2026-04-25 15:14 | 48.14398 | 11.60609 | 19872 ft | 317 kts | 34° |
| 2026-04-25 15:15 | 48.16129 | 11.62625 | 19297 ft | 314 kts | 34° |
| 2026-04-25 15:15 | 48.17790 | 11.64701 | 18741 ft | 313 kts | 41° |
| 2026-04-25 15:15 | 48.19288 | 11.67065 | 18162 ft | 311 kts | 44° |
| 2026-04-25 15:15 | 48.20734 | 11.69445 | 17604 ft | 307 kts | 43° |
| 2026-04-25 15:16 | 48.22426 | 11.71240 | 17014 ft | 296 kts | 16° |
| 2026-04-25 15:16 | 48.24389 | 11.71623 | 16425 ft | 283 kts | 347° |
| 2026-04-25 15:16 | 48.27739 | 11.69013 | 15304 ft | 269 kts | 315° |
| 2026-04-25 15:17 | 48.28866 | 11.64016 | 14230 ft | 267 kts | 258° |
| 2026-04-25 15:17 | 48.28041 | 11.61540 | 13676 ft | 272 kts | 239° |
| 2026-04-25 15:17 | 48.26914 | 11.59264 | 13158 ft | 271 kts | 237° |
| 2026-04-25 15:18 | 48.25770 | 11.57017 | 12749 ft | 262 kts | 236° |
| 2026-04-25 15:18 | 48.23629 | 11.52800 | 11338 ft | 254 kts | 237° |
| 2026-04-25 15:18 | 48.22595 | 11.50711 | 10473 ft | 244 kts | 239° |
| 2026-04-25 15:19 | 48.21690 | 11.48650 | 9284 ft | 242 kts | 240° |
| 2026-04-25 15:19 | 48.21113 | 11.47257 | 8461 ft | 240 kts | 242° |
| 2026-04-25 15:19 | 48.19858 | 11.44589 | 6802 ft | 240 kts | 231° |
| 2026-04-25 15:19 | 48.18715 | 11.42858 | 5575 ft | 238 kts | 227° |
| 2026-04-25 15:20 | 48.17537 | 11.41200 | 4347 ft | 236 kts | 226° |
| 2026-04-25 15:20 | 48.16409 | 11.39647 | 3939 ft | 202 kts | 226° |
| 2026-04-25 15:20 | 48.15434 | 11.38318 | 3616 ft | 176 kts | 227° |
| 2026-04-25 15:20 | 48.14616 | 11.37201 | 3455 ft | 148 kts | 228° |
| 2026-04-25 15:21 | 48.13876 | 11.36183 | 3210 ft | 140 kts | 229° |
| 2026-04-25 15:21 | 48.13185 | 11.35229 | 3022 ft | 133 kts | 229° |
| 2026-04-25 15:21 | 48.12504 | 11.34288 | 2861 ft | 131 kts | 227° |
| 2026-04-25 15:21 | 48.11823 | 11.33348 | 2679 ft | 135 kts | 227° |
| 2026-04-25 15:22 | 48.11143 | 11.32404 | 2525 ft | 131 kts | 228° |
| 2026-04-25 15:22 | 48.10471 | 11.31492 | 2354 ft | 132 kts | 225° |
| 2026-04-25 15:22 | 48.09781 | 11.30572 | 2172 ft | 133 kts | 225° |
| 2026-04-25 15:22 | 48.09101 | 11.29628 | 2000 ft | 134 kts | 226° |
| 2026-04-25 15:23 | 48.08432 | 11.28715 | 1926 ft | 121 kts | 225° |
| 2026-04-25 15:23 | 48.07710 | 11.27765 | 2574 ft | 146 kts | 226° |
| 2026-04-25 15:23 | 48.06995 | 11.26834 | 3720 ft | 150 kts | 225° |
| 2026-04-25 15:23 | 48.06135 | 11.25674 | 4533 ft | 194 kts | 227° |
| 2026-04-25 15:24 | 48.04877 | 11.24259 | 4869 ft | 269 kts | 207° |
| 2026-04-25 15:24 | 48.02844 | 11.23777 | 4986 ft | 314 kts | 176° |
| 2026-04-25 15:24 | 48.00879 | 11.24872 | 5016 ft | 295 kts | 144° |
| 2026-04-25 15:24 | 47.99974 | 11.26304 | 5027 ft | 282 kts | 122° |
| 2026-04-25 15:25 | 47.99415 | 11.28963 | 5029 ft | 260 kts | 89° |
| 2026-04-25 15:25 | 48.00201 | 11.32056 | 5048 ft | 230 kts | 40° |
| 2026-04-25 15:25 | 48.01526 | 11.33274 | 5033 ft | 225 kts | 20° |
| 2026-04-25 15:25 | 48.02976 | 11.34243 | 5021 ft | 227 kts | 23° |
| 2026-04-25 15:26 | 48.04373 | 11.35350 | 5020 ft | 229 kts | 30° |
| 2026-04-25 15:26 | 48.05577 | 11.36941 | 5022 ft | 232 kts | 42° |
| 2026-04-25 15:26 | 48.06696 | 11.38673 | 5026 ft | 232 kts | 43° |
| 2026-04-25 15:26 | 48.07821 | 11.40437 | 5014 ft | 232 kts | 43° |
| 2026-04-25 15:27 | 48.08933 | 11.42182 | 4958 ft | 232 kts | 43° |
| 2026-04-25 15:27 | 48.10043 | 11.43920 | 4832 ft | 231 kts | 43° |
| 2026-04-25 15:27 | 48.12254 | 11.47404 | 4590 ft | 230 kts | 43° |
| 2026-04-25 15:28 | 48.13372 | 11.49145 | 4457 ft | 228 kts | 39° |
| 2026-04-25 15:28 | 48.14724 | 11.50183 | 4318 ft | 217 kts | 3° |
| 2026-04-25 15:28 | 48.16149 | 11.49763 | 4213 ft | 207 kts | 326° |
| 2026-04-25 15:28 | 48.17134 | 11.48245 | 4101 ft | 199 kts | 303° |
| 2026-04-25 15:29 | 48.17854 | 11.46580 | 4009 ft | 183 kts | 310° |
| 2026-04-25 15:29 | 48.18808 | 11.45435 | 3971 ft | 169 kts | 319° |
| 2026-04-25 15:29 | 48.19519 | 11.44216 | 3987 ft | 142 kts | 293° |
| 2026-04-25 15:29 | 48.19387 | 11.42826 | 3987 ft | 140 kts | 239° |
| 2026-04-25 15:30 | 48.18863 | 11.42244 | 3994 ft | 143 kts | 206° |
| 2026-04-25 15:30 | 48.17665 | 11.41467 | 4020 ft | 137 kts | 219° |
| 2026-04-25 15:30 | 48.16949 | 11.40576 | 3994 ft | 134 kts | 229° |
| 2026-04-25 15:30 | 48.16291 | 11.39576 | 3813 ft | 133 kts | 231° |
| 2026-04-25 15:31 | 48.15646 | 11.38598 | 3663 ft | 131 kts | 230° |
| 2026-04-25 15:31 | 48.14984 | 11.37649 | 3518 ft | 132 kts | 228° |
| 2026-04-25 15:31 | 48.14593 | 11.37106 | 3386 ft | 134 kts | 227° |
| 2026-04-25 15:32 | 48.14146 | 11.36503 | 3239 ft | 133 kts | 227° |
| 2026-04-25 15:32 | 48.13722 | 11.35931 | 3136 ft | 132 kts | 227° |
| 2026-04-25 15:32 | 48.13098 | 11.35081 | 2981 ft | 132 kts | 227° |
| 2026-04-25 15:33 | 48.11736 | 11.33236 | 2705 ft | 131 kts | 227° |
| 2026-04-25 15:33 | 48.11056 | 11.32306 | 2588 ft | 129 kts | 226° |
| 2026-04-25 15:33 | 48.10385 | 11.31422 | 2413 ft | 128 kts | 226° |
| 2026-04-25 15:33 | 48.09730 | 11.30510 | 2166 ft | 127 kts | 227° |
| 2026-04-25 15:34 | 48.09083 | 11.29607 | 1963 ft | 129 kts | 226° |
| 2026-04-25 15:34 | 48.08449 | 11.28750 | 1911 ft | 107 kts | 222° |
| 2026-04-25 15:34 | 48.08035 | 11.28165 | 1920 ft | 65 kts | 221° |
| 2026-04-25 15:34 | 48.07824 | 11.27876 | 1927 ft | 55 kts | 221° |
| 2026-04-25 15:35 | 48.07633 | 11.27579 | 1941 ft | 4 kts | 310° |
| 2026-04-25 15:35 | 48.07657 | 11.27541 | 1942 ft | 5 kts | 320° |
| 2026-04-25 15:35 | 48.07703 | 11.27537 | 1941 ft | 9 kts | 30° |
| 2026-04-25 15:36 | 48.07850 | 11.27726 | 1931 ft | 10 kts | 30° |
| 2026-04-25 15:36 | 48.07944 | 11.27776 | 1928 ft | 17 kts | 7° |
| 2026-04-25 15:36 | 48.08081 | 11.27777 | 1924 ft | 19 kts | 4° |
| 2026-04-25 15:37 | 48.08177 | 11.27877 | 1920 ft | 16 kts | 41° |
| 2026-04-25 15:37 | 48.08274 | 11.28009 | 1915 ft | 18 kts | 43° |
| 2026-04-25 15:37 | 48.08353 | 11.28117 | 1914 ft | 12 kts | 41° |
| 2026-04-25 15:37 | 48.08423 | 11.28213 | 1912 ft | 15 kts | 42° |
| 2026-04-25 15:38 | 48.08515 | 11.28339 | 1910 ft | 20 kts | 41° |
| 2026-04-25 15:38 | 48.08618 | 11.28479 | 1906 ft | 14 kts | 42° |
| 2026-04-25 15:38 | 48.08679 | 11.28561 | 1904 ft | 6 kts | 24° |
| 2026-04-25 15:38 | 48.08733 | 11.28517 | 1903 ft | 11 kts | 327° |
| 2026-04-25 15:39 | 48.08777 | 11.28476 | 1902 ft | 4 kts | 344° |
| 2026-04-25 15:39 | 48.08800 | 11.28494 | 1902 ft | 0 kts | 42° |